Time;durP1;ratioP1;P1;durP2;ratioP2;P2;SDS_P1;SDS_P2;PMS_P1;PMS_P2;Temp;Humidity;BMP_temperature;BMP_pressure;BME280_temperature;BME280_humidity;BME280_pressure;Samples;Min_cycle;Max_cycle;Signal;HPM_P1;HPM_P2
2021/11/17 02:27:05;;;;;;;11.15;7.32;;;;;;;6.32;64.14;95340.69;5074907;28;20086;-72
2021/11/17 02:29:46;;;;;;;8.82;7.10;;;;;;;6.34;64.03;95336.28;5073499;28;20054;-73
2021/11/17 02:32:35;;;;;;;10.27;7.97;;;;;;;6.36;63.99;95342.19;5075144;28;20044;-73
2021/11/17 02:35:13;;;;;;;9.93;7.70;;;;;;;6.34;64.19;95339.69;5073561;28;20064;-73
2021/11/17 02:37:51;;;;;;;11.10;6.85;;;;;;;6.35;64.04;95335.34;5074912;28;20037;-73
2021/11/17 02:40:35;;;;;;;10.23;7.28;;;;;;;6.35;64.14;95343.09;5073366;28;20024;-73
2021/11/17 02:43:28;;;;;;;9.13;7.55;;;;;;;6.37;64.49;95344.66;5074914;28;20067;-73
2021/11/17 02:46:06;;;;;;;12.18;7.65;;;;;;;6.35;64.42;95335.34;5086028;28;20297;-73
2021/11/17 02:48:38;;;;;;;9.80;7.53;;;;;;;6.37;64.10;95336.09;5093410;28;20044;-72
2021/11/17 02:51:15;;;;;;;;;;;;;;;6.36;64.08;95337.03;5094975;28;20053;-72
2021/11/17 02:53:46;;;;;;;9.93;7.50;;;;;;;6.30;64.52;95342.56;5094496;28;19915;-73
2021/11/17 02:56:39;;;;;;;9.65;7.20;;;;;;;6.30;64.23;95332.22;5094388;28;20028;-73
2021/11/17 02:59:10;;;;;;;10.05;7.88;;;;;;;6.28;64.38;95336.63;5094398;28;20494;-72
2021/11/17 03:01:38;;;;;;;11.35;8.07;;;;;;;6.30;64.24;95342.56;5094403;28;20063;-72
2021/11/17 03:04:13;;;;;;;10.15;8.00;;;;;;;6.33;64.04;95342.38;5094252;28;20485;-72
2021/11/17 03:07:03;;;;;;;10.85;7.38;;;;;;;6.38;63.94;95335.16;5093034;28;20097;-72
2021/11/17 03:09:48;;;;;;;9.55;8.23;;;;;;;6.36;63.83;95334.44;5094108;28;20020;-72
2021/11/17 03:12:14;;;;;;;9.68;6.90;;;;;;;6.35;63.86;95340.50;5082517;28;20095;-72
2021/11/17 03:14:51;;;;;;;10.60;7.97;;;;;;;6.33;64.05;95332.88;5093975;28;20055;-72
2021/11/17 03:17:31;;;;;;;10.02;7.28;;;;;;;6.38;64.04;95330.88;5094362;28;20035;-72
2021/11/17 03:20:24;;;;;;;8.82;7.28;;;;;;;6.31;64.26;95333.88;5093966;28;20036;-72
2021/11/17 03:23:04;;;;;;;10.30;7.68;;;;;;;6.31;64.17;95326.97;5094331;28;20375;-72
2021/11/17 03:25:48;;;;;;;12.05;7.90;;;;;;;6.33;64.25;95327.72;5093841;28;20437;-72
2021/11/17 03:28:33;;;;;;;11.23;8.30;;;;;;;6.36;64.32;95330.13;5094333;28;20465;-72
2021/11/17 03:31:08;;;;;;;11.68;7.97;;;;;;;6.33;64.37;95326.88;5093363;28;20520;-72
2021/11/17 03:33:55;;;;;;;11.57;8.07;;;;;;;6.32;64.53;95325.22;5091834;28;20040;-72
2021/11/17 03:36:48;;;;;;;11.13;7.78;;;;;;;6.26;65.00;95331.56;5093406;28;20111;-73
2021/11/17 03:39:22;;;;;;;11.05;8.10;;;;;;;6.28;65.15;95323.75;5092348;28;20051;-73
2021/11/17 03:42:39;;;;;;;10.50;8.48;;;;;;;6.19;65.08;95325.94;5093633;28;20092;-73
2021/11/17 03:45:29;;;;;;;10.93;8.35;;;;;;;6.24;65.27;95326.50;5035531;28;20482;-72
2021/11/17 03:48:13;;;;;;;11.55;8.82;;;;;;;6.28;65.25;95334.88;5017730;28;20037;-73
2021/11/17 03:51:32;;;;;;;11.15;8.65;;;;;;;6.21;65.52;95326.69;5067448;28;20064;-73
2021/11/17 03:54:31;;;;;;;13.77;8.65;;;;;;;6.18;65.59;95323.41;5050786;28;20044;-73
2021/11/17 03:57:17;;;;;;;13.48;8.30;;;;;;;6.16;65.70;95325.28;5073213;28;20104;-73
2021/11/17 04:00:02;;;;;;;11.07;8.43;;;;;;;6.14;66.15;95325.34;5071766;28;20107;-72
2021/11/17 04:02:50;;;;;;;11.32;8.10;;;;;;;6.20;65.68;95322.41;5073229;28;20037;-72
2021/11/17 04:05:43;;;;;;;12.70;8.68;;;;;;;6.17;65.94;95317.44;5062068;28;20036;-72
2021/11/17 04:08:17;;;;;;;12.25;8.23;;;;;;;6.17;66.14;95322.59;5073294;28;20071;-72
2021/11/17 04:10:43;;;;;;;11.43;8.52;;;;;;;6.16;65.98;95320.13;5072707;28;20036;-71
2021/11/17 04:13:17;;;;;;;12.60;9.30;;;;;;;6.23;65.60;95327.41;5073194;28;20040;-72
2021/11/17 04:15:46;;;;;;;13.07;8.82;;;;;;;6.18;65.70;95321.66;5072526;28;20059;-71
2021/11/17 04:18:38;;;;;;;11.82;9.05;;;;;;;6.20;65.77;95326.75;5071576;28;20071;-71
2021/11/17 04:21:31;;;;;;;12.70;9.48;;;;;;;6.17;66.04;95325.19;5071430;28;20043;-72
2021/11/17 04:24:29;;;;;;;11.63;7.53;;;;;;;6.23;65.39;95322.22;5072524;28;20033;-71
2021/11/17 04:27:03;;;;;;;10.32;7.70;;;;;;;6.17;65.85;95321.78;5072112;28;20052;-71
2021/11/17 04:29:39;;;;;;;9.10;6.05;;;;;;;6.13;66.11;95318.53;5072442;28;20050;-72
2021/11/17 04:32:13;;;;;;;12.52;8.48;;;;;;;6.13;66.27;95326.28;5072341;28;20071;-72
2021/11/17 04:34:44;;;;;;;11.02;7.88;;;;;;;6.20;65.77;95324.16;5070982;28;20082;-72
2021/11/17 04:37:34;;;;;;;10.65;7.82;;;;;;;6.17;65.98;95327.75;5071201;28;20044;-73
2021/11/17 04:40:28;;;;;;;9.65;7.30;;;;;;;6.20;65.77;95332.72;5072606;28;20020;-73
2021/11/17 04:43:33;;;;;;;10.27;7.15;;;;;;;6.16;66.23;95331.25;5056229;28;20044;-73
2021/11/17 04:46:08;;;;;;;10.93;8.40;;;;;;;6.15;65.96;95328.75;5079543;28;20029;-73
2021/11/17 04:48:52;;;;;;;10.75;7.80;;;;;;;6.09;66.27;95326.53;5072066;28;20044;-73
2021/11/17 04:51:27;;;;;;;10.27;7.88;;;;;;;5.85;66.09;95292.59;5070658;28;20028;-73
2021/11/17 04:54:13;;;;;;;10.85;8.05;;;;;;;6.10;66.19;95323.03;5071972;28;20024;-73
2021/11/17 04:56:53;;;;;;;9.80;7.45;;;;;;;6.10;66.17;95331.63;5060549;28;20314;-73
2021/11/17 04:59:28;;;;;;;12.65;8.45;;;;;;;6.09;66.12;95329.13;5070836;28;20028;-72
2021/11/17 05:02:13;;;;;;;10.68;7.90;;;;;;;6.10;66.21;95334.19;5071356;28;20074;-73
2021/11/17 05:04:50;;;;;;;12.60;9.45;;;;;;;6.13;65.74;95330.59;5071962;28;20554;-73
2021/11/17 05:07:34;;;;;;;11.43;8.45;;;;;;;6.13;65.58;95336.59;5070470;28;20041;-72
2021/11/17 05:10:32;;;;;;;10.25;8.05;;;;;;;6.11;65.77;95333.28;5070710;28;20116;-72
2021/11/17 05:13:04;;;;;;;12.00;8.98;;;;;;;6.09;65.17;95332.53;5070568;28;20037;-73
2021/11/17 05:15:50;;;;;;;12.70;9.15;;;;;;;6.10;65.84;95336.78;5066433;28;20043;-72
2021/11/17 05:18:32;;;;;;;13.68;9.77;;;;;;;6.01;65.60;95330.38;5069606;28;20037;-72
2021/11/17 05:21:03;;;;;;;15.13;10.48;;;;;;;6.08;65.64;95338.59;5069456;28;20017;-72
2021/11/17 05:24:06;;;;;;;13.05;8.95;;;;;;;6.10;65.60;95339.34;5070103;28;20043;-73
2021/11/17 05:27:13;;;;;;;12.73;8.95;;;;;;;6.08;65.71;95338.59;5070585;28;20024;-72
2021/11/17 05:30:19;;;;;;;14.05;9.60;;;;;;;6.05;65.61;95343.94;5030790;28;20116;-72
2021/11/17 05:33:15;;;;;;;14.13;9.38;;;;;;;6.06;65.75;95350.75;5025860;28;20045;-73
2021/11/17 05:35:47;;;;;;;13.55;9.57;;;;;;;6.10;65.62;95348.81;5027789;28;20041;-72
2021/11/17 05:38:24;;;;;;;;;;;;;;;6.13;65.48;95348.63;5052074;28;20050;-73
2021/11/17 05:41:07;;;;;;;13.95;9.27;;;;;;;6.13;65.66;95353.81;5069088;28;20014;-72
2021/11/17 05:43:54;;;;;;;15.07;9.77;;;;;;;6.13;65.38;95349.50;5070432;28;20526;-73
2021/11/17 05:46:23;;;;;;;14.20;9.35;;;;;;;6.13;65.49;95352.09;5083593;28;20078;-72
2021/11/17 05:49:13;;;;;;;13.38;9.95;;;;;;;6.11;65.45;95355.66;5088389;28;20473;-73
2021/11/17 05:51:54;;;;;;;14.68;10.07;;;;;;;6.11;65.59;95364.22;5088243;28;20028;-72
2021/11/17 05:54:44;;;;;;;14.35;10.55;;;;;;;6.12;65.63;95360.72;5091053;28;20119;-72
2021/11/17 05:57:09;;;;;;;11.73;8.77;;;;;;;6.16;65.48;95353.66;5088810;28;20036;-72
2021/11/17 06:00:07;;;;;;;13.40;9.60;;;;;;;6.05;65.43;95338.78;5089836;28;20043;-72
2021/11/17 06:02:54;;;;;;;13.70;10.48;;;;;;;6.20;65.74;95363.69;5090562;28;20071;-73
2021/11/17 06:05:19;;;;;;;12.98;9.23;;;;;;;6.13;65.54;95346.91;5088631;28;20024;-72
2021/11/17 06:07:44;;;;;;;14.03;10.77;;;;;;;6.23;65.45;95366.09;5089612;28;20040;-74
2021/11/17 06:10:15;;;;;;;14.73;10.57;;;;;;;6.19;65.75;95369.78;5089568;28;20323;-74
2021/11/17 06:12:41;;;;;;;16.52;11.32;;;;;;;6.18;65.61;95375.84;5073153;28;20068;-73
2021/11/17 06:15:07;;;;;;;14.10;10.77;;;;;;;6.16;65.38;95367.38;5056045;28;20480;-72
2021/11/17 06:17:32;;;;;;;14.52;10.98;;;;;;;6.24;64.89;95374.66;5073123;28;20474;-72
2021/11/17 06:19:57;;;;;;;14.35;10.25;;;;;;;6.17;65.11;95369.03;5072814;28;20020;-72
2021/11/17 06:22:26;;;;;;;15.35;11.23;;;;;;;6.14;65.29;95360.66;5072955;28;20032;-72
2021/11/17 06:24:52;;;;;;;13.25;9.27;;;;;;;6.16;65.17;95367.38;5056028;28;20054;-73
2021/11/17 06:27:20;;;;;;;13.63;10.40;;;;;;;6.21;64.93;95380.84;5072648;28;20553;-73
2021/11/17 06:29:47;;;;;;;14.45;10.57;;;;;;;6.17;64.75;95378.53;5069171;28;20040;-73
2021/11/17 06:32:12;;;;;;;14.10;10.32;;;;;;;6.25;64.10;95384.91;5052885;28;20036;-73
2021/11/17 06:34:40;;;;;;;14.75;10.57;;;;;;;6.20;64.42;95383.50;5069314;28;20486;-73
2021/11/17 06:37:07;;;;;;;17.30;11.07;;;;;;;6.20;64.07;95394.66;5036152;28;20387;-73
2021/11/17 06:39:34;;;;;;;13.93;9.98;;;;;;;6.15;64.13;95388.91;5036167;28;20025;-73
2021/11/17 06:42:00;;;;;;;13.57;10.18;;;;;;;6.18;64.11;95396.47;5052623;28;20036;-73
2021/11/17 06:44:25;;;;;;;16.02;10.88;;;;;;;6.14;63.95;95389.84;5052609;28;20040;-74
2021/11/17 06:46:51;;;;;;;12.63;10.10;;;;;;;6.24;63.63;95398.75;5071958;28;20040;-73
2021/11/17 06:49:17;;;;;;;13.48;10.27;;;;;;;6.26;63.15;95394.31;5072647;28;20051;-74
2021/11/17 06:51:42;;;;;;;12.73;9.77;;;;;;;6.32;63.73;95402.63;5089307;28;20028;-73
2021/11/17 06:54:08;;;;;;;12.00;9.27;;;;;;;6.34;63.50;95391.28;5090573;28;20028;-73
2021/11/17 06:56:33;;;;;;;13.80;10.75;;;;;;;6.38;63.27;95402.25;5071534;28;20468;-72
2021/11/17 06:58:59;;;;;;;14.75;10.55;;;;;;;6.38;62.80;95394.53;5054612;28;20086;-73
2021/11/17 07:01:24;;;;;;;12.95;9.93;;;;;;;6.30;63.17;95389.00;5052317;28;20064;-73
2021/11/17 07:03:50;;;;;;;13.45;10.38;;;;;;;6.40;63.15;95396.09;5035786;28;20035;-73
2021/11/17 07:06:15;;;;;;;14.25;10.35;;;;;;;6.32;63.03;95387.13;5052360;28;20024;-73
2021/11/17 07:08:40;;;;;;;14.25;11.15;;;;;;;6.36;62.99;95404.13;5053373;28;20040;-73
2021/11/17 07:11:06;;;;;;;13.93;10.27;;;;;;;6.32;63.09;95394.88;5073794;28;20021;-73
2021/11/17 07:13:31;;;;;;;15.77;11.27;;;;;;;6.33;63.01;95405.13;5056040;28;20123;-73
2021/11/17 07:15:57;;;;;;;14.30;11.43;;;;;;;6.18;63.30;95391.31;5055703;28;20028;-74
2021/11/17 07:18:22;;;;;;;14.13;11.20;;;;;;;6.33;63.24;95406.88;5075256;28;20028;-73
2021/11/17 07:20:48;;;;;;;14.50;11.05;;;;;;;6.29;63.19;95401.03;5091583;28;20028;-74
2021/11/17 07:23:14;;;;;;;12.80;9.90;;;;;;;6.31;63.17;95393.22;5064775;28;20039;-71
2021/11/17 07:25:40;;;;;;;15.20;11.77;;;;;;;6.46;62.99;95407.81;5090145;28;20028;-77
2021/11/17 07:28:05;;;;;;;15.45;11.80;;;;;;;6.31;62.99;95391.47;5063297;28;20040;-73
2021/11/17 07:30:39;;;;;;;16.05;11.77;;;;;;;6.34;63.22;95403.38;5088410;28;20024;-73
2021/11/17 07:33:04;;;;;;;14.98;11.73;;;;;;;6.31;63.16;95406.94;5076531;28;20043;-73
2021/11/17 07:35:31;;;;;;;18.25;12.73;;;;;;;6.31;63.07;95404.38;5092155;28;20032;-73
2021/11/17 07:38:02;;;;;;;16.77;11.98;;;;;;;6.40;63.29;95408.19;5092616;28;20039;-73
2021/11/17 07:40:32;;;;;;;15.20;11.60;;;;;;;6.33;63.14;95399.13;5060401;28;20498;-73
2021/11/17 07:42:57;;;;;;;17.13;13.10;;;;;;;6.47;62.95;95412.91;5075387;28;20040;-74
2021/11/17 07:45:23;;;;;;;15.90;12.18;;;;;;;6.41;62.41;95402.94;5071920;28;20213;-74
2021/11/17 07:47:49;;;;;;;15.32;11.75;;;;;;;6.43;62.73;95413.16;5038860;28;20032;-73
2021/11/17 07:50:15;;;;;;;14.57;11.48;;;;;;;6.45;63.09;95414.75;5088668;28;20028;-73
2021/11/17 07:52:40;;;;;;;15.13;12.18;;;;;;;6.48;62.75;95408.56;5038892;28;20032;-74
2021/11/17 07:55:08;;;;;;;16.20;12.75;;;;;;;6.48;62.90;95408.56;5072946;28;20024;-74
2021/11/17 07:57:33;;;;;;;16.58;12.85;;;;;;;6.49;62.90;95412.81;5055254;28;20071;-73
2021/11/17 07:59:59;;;;;;;18.02;13.18;;;;;;;6.59;62.82;95411.38;5071606;28;20048;-73
2021/11/17 08:02:24;;;;;;;15.95;12.85;;;;;;;6.65;62.73;95418.75;5055190;28;20033;-74
2021/11/17 08:04:50;;;;;;;14.43;11.20;;;;;;;6.61;62.39;95403.56;5071636;28;20035;-73
2021/11/17 08:07:18;;;;;;;15.27;11.13;;;;;;;6.68;62.03;95404.84;5055147;28;20040;-74
2021/11/17 08:09:44;;;;;;;16.20;12.35;;;;;;;6.66;62.12;95407.53;5055293;28;20052;-73
2021/11/17 08:12:10;;;;;;;16.15;12.90;;;;;;;6.66;61.22;95417.84;5055094;28;20071;-74
2021/11/17 08:14:35;;;;;;;15.23;11.88;;;;;;;6.60;61.90;95418.22;5071513;28;20036;-74
2021/11/17 08:17:01;;;;;;;21.23;16.00;;;;;;;6.69;61.88;95420.25;5071564;28;20037;-74
2021/11/17 08:19:27;;;;;;;13.43;11.63;;;;;;;6.79;62.04;95422.28;5058936;28;20028;-78
2021/11/17 08:21:52;;;;;;;14.40;11.90;;;;;;;6.78;61.18;95405.97;5074551;28;20038;-77
2021/11/17 08:24:18;;;;;;;14.93;11.07;;;;;;;6.62;61.38;95379.38;5075193;28;20074;-78
2021/11/17 08:26:43;;;;;;;14.45;10.80;;;;;;;6.85;60.97;95404.72;5074585;28;20103;-74
2021/11/17 08:29:09;;;;;;;15.57;11.90;;;;;;;6.95;60.92;95404.97;5074626;28;20020;-74
2021/11/17 08:31:35;;;;;;;15.02;11.93;;;;;;;7.00;60.75;95407.31;5074479;28;20032;-74
2021/11/17 08:34:01;;;;;;;14.43;11.48;;;;;;;6.98;60.09;95407.38;5091289;28;20161;-74
2021/11/17 08:36:27;;;;;;;12.93;10.90;;;;;;;7.04;59.50;95412.19;5091070;28;20058;-74
2021/11/17 08:38:54;;;;;;;13.43;10.07;;;;;;;7.06;59.70;95407.75;5091357;28;20024;-74
2021/11/17 08:41:21;;;;;;;16.02;12.18;;;;;;;7.08;59.19;95408.50;5074642;28;20020;-74
2021/11/17 08:43:46;;;;;;;13.07;11.25;;;;;;;7.03;59.66;95405.38;5074312;28;20120;-74
2021/11/17 08:46:12;;;;;;;13.98;11.80;;;;;;;7.01;59.75;95404.63;5091077;28;20082;-73
2021/11/17 08:48:37;;;;;;;13.85;11.43;;;;;;;6.98;60.21;95407.38;5092401;28;20020;-73
2021/11/17 08:51:04;;;;;;;16.25;12.10;;;;;;;7.00;60.47;95400.38;5092152;28;20032;-73
2021/11/17 08:53:31;;;;;;;14.80;11.90;;;;;;;6.97;60.57;95400.56;5074097;28;20051;-73
2021/11/17 08:55:58;;;;;;;14.10;12.38;;;;;;;7.10;60.34;95409.25;5073985;28;20099;-73
2021/11/17 08:58:23;;;;;;;18.25;15.50;;;;;;;7.06;60.48;95404.34;5074060;28;20043;-73
2021/11/17 09:00:49;;;;;;;15.95;13.70;;;;;;;7.13;60.10;95406.47;5091922;28;20056;-73
2021/11/17 09:03:15;;;;;;;14.20;12.27;;;;;;;7.11;59.92;95404.91;5091032;28;20074;-73
2021/11/17 09:05:49;;;;;;;15.82;13.63;;;;;;;7.11;60.33;95403.16;5073829;28;20069;-73
2021/11/17 09:08:15;;;;;;;16.13;13.25;;;;;;;7.16;60.32;95398.53;5091025;28;20066;-73
2021/11/17 09:10:43;;;;;;;15.05;12.02;;;;;;;7.27;59.93;95391.88;5073652;28;20028;-73
2021/11/17 09:13:08;;;;;;;18.52;13.20;;;;;;;7.27;59.47;95386.72;5057412;28;20597;-72
2021/11/17 09:15:37;;;;;;;13.27;11.85;;;;;;;7.23;59.37;95377.50;5090447;28;20107;-72
2021/11/17 09:18:03;;;;;;;13.98;10.60;;;;;;;7.36;58.76;95386.16;5057435;28;20051;-72
2021/11/17 09:20:28;;;;;;;14.27;12.45;;;;;;;7.29;59.08;95379.69;5090411;28;20050;-72
2021/11/17 09:22:54;;;;;;;15.20;12.65;;;;;;;7.33;59.11;95370.84;5092093;28;20024;-72
2021/11/17 09:25:20;;;;;;;14.10;11.70;;;;;;;7.44;57.49;95378.78;5073471;28;20032;-71
2021/11/17 09:27:46;;;;;;;11.85;10.48;;;;;;;7.45;57.70;95380.44;5056722;28;20043;-74
2021/11/17 09:30:13;;;;;;;11.77;10.38;;;;;;;7.52;57.85;95386.91;5073388;28;20502;-70
2021/11/17 09:32:39;;;;;;;14.07;11.65;;;;;;;7.49;58.19;95381.06;5056065;28;20036;-71
2021/11/17 09:35:07;;;;;;;12.27;10.98;;;;;;;7.56;57.96;95378.00;5073220;28;20043;-72
2021/11/17 09:37:33;;;;;;;12.43;11.05;;;;;;;7.56;58.48;95374.59;5073496;28;20474;-73
2021/11/17 09:39:58;;;;;;;11.70;10.50;;;;;;;7.64;57.94;95379.31;5090138;28;20024;-73
2021/11/17 09:42:24;;;;;;;11.95;10.75;;;;;;;7.67;57.69;95373.94;5073380;28;20048;-73
2021/11/17 09:44:49;;;;;;;11.18;9.77;;;;;;;7.69;57.70;95366.91;5073082;28;20490;-73
2021/11/17 09:47:17;;;;;;;11.10;9.93;;;;;;;7.58;58.00;95344.31;5073172;28;20024;-73
2021/11/17 09:49:47;;;;;;;11.23;9.50;;;;;;;7.71;58.40;95365.03;5073636;28;20036;-73
2021/11/17 09:52:19;;;;;;;12.73;10.27;;;;;;;7.82;58.61;95367.78;5090130;28;20055;-73
2021/11/17 09:54:54;;;;;;;13.07;10.52;;;;;;;7.94;58.07;95361.00;5056420;28;20020;-73
2021/11/17 09:57:32;;;;;;;11.63;9.38;;;;;;;7.97;57.82;95348.72;5089923;28;20036;-73
2021/11/17 10:00:04;;;;;;;11.90;9.65;;;;;;;8.06;57.13;95348.13;5073028;28;20039;-73
2021/11/17 10:02:37;;;;;;;11.77;10.07;;;;;;;8.17;57.28;95331.91;5089732;28;20081;-73
2021/11/17 10:05:21;;;;;;;12.10;10.35;;;;;;;8.38;56.43;95344.38;5089783;28;20097;-73
2021/11/17 10:08:19;;;;;;;12.90;11.05;;;;;;;8.46;56.21;95326.59;5091460;28;20040;-72
2021/11/17 10:14:24;;;;;;;11.60;8.80;;;;;;;8.56;55.73;95321.66;5079984;28;20056;-72
2021/11/17 10:16:50;;;;;;;13.15;9.75;;;;;;;8.52;55.31;95315.81;5089637;28;20047;-72
2021/11/17 10:19:22;;;;;;;11.55;9.63;;;;;;;8.53;55.22;95322.69;5089723;28;20060;-72
2021/11/17 10:22:07;;;;;;;11.13;9.43;;;;;;;8.58;55.73;95310.25;5089607;28;20036;-72
2021/11/17 10:24:43;;;;;;;10.52;9.10;;;;;;;8.56;55.60;95311.28;5074582;28;20114;-72
2021/11/17 10:27:09;;;;;;;14.38;10.63;;;;;;;8.57;55.29;95313.75;5089540;28;20037;-72
2021/11/17 10:29:38;;;;;;;11.02;9.35;;;;;;;8.57;55.02;95295.63;5089546;28;20115;-72
2021/11/17 10:32:25;;;;;;;12.50;10.73;;;;;;;8.62;54.80;95313.47;5072867;28;20032;-73
2021/11/17 10:35:12;;;;;;;14.85;13.25;;;;;;;8.59;55.33;95308.50;5090645;28;20108;-72
2021/11/17 10:37:42;;;;;;;11.20;9.93;;;;;;;8.59;55.08;95314.50;5089600;28;20485;-72
2021/11/17 10:40:22;;;;;;;10.83;9.63;;;;;;;8.58;54.99;95314.59;5056382;28;20024;-72
2021/11/17 10:42:57;;;;;;;12.15;9.80;;;;;;;8.45;54.71;95306.81;5073443;28;20337;-72
2021/11/17 10:45:33;;;;;;;9.80;8.75;;;;;;;8.47;55.29;95305.78;5059892;28;20020;-72
2021/11/17 10:47:59;;;;;;;10.50;9.15;;;;;;;8.52;54.58;95302.88;5093597;28;20559;-72
2021/11/17 10:50:38;;;;;;;11.50;8.82;;;;;;;8.50;55.06;95297.81;5076392;28;20032;-73
2021/11/17 10:53:07;;;;;;;9.75;8.65;;;;;;;8.52;54.56;95305.47;5076789;28;20070;-72
2021/11/17 10:55:47;;;;;;;10.05;9.00;;;;;;;8.53;54.65;95301.16;5076531;28;20107;-72
2021/11/17 10:58:20;;;;;;;11.10;9.90;;;;;;;8.43;54.39;95288.78;5093486;28;20032;-72
2021/11/17 11:00:51;;;;;;;12.43;10.00;;;;;;;8.43;54.86;95293.97;5092919;28;20082;-72
2021/11/17 11:03:18;;;;;;;11.70;10.10;;;;;;;8.47;55.17;95298.03;5093451;28;20090;-72
2021/11/17 11:05:49;;;;;;;14.10;10.73;;;;;;;8.50;55.31;95286.63;5076172;28;20040;-73
2021/11/17 11:08:19;;;;;;;12.77;10.50;;;;;;;8.50;54.76;95286.63;5093225;28;20036;-72
2021/11/17 11:10:53;;;;;;;11.50;9.85;;;;;;;8.47;54.67;95282.50;5092888;28;20028;-72
2021/11/17 11:13:52;;;;;;;15.05;10.35;;;;;;;8.42;55.03;95284.56;5077335;28;20036;-72
2021/11/17 11:16:28;;;;;;;12.55;10.25;;;;;;;8.43;55.21;95280.19;5092751;28;20447;-72
2021/11/17 11:19:08;;;;;;;11.00;9.05;;;;;;;8.53;55.22;95280.44;5093087;28;20028;-72
2021/11/17 11:21:43;;;;;;;18.88;15.10;;;;;;;8.57;55.37;95274.09;5092724;28;20036;-72
2021/11/17 11:24:26;;;;;;;13.88;12.23;;;;;;;8.53;55.50;95281.25;5094071;28;20647;-72
2021/11/17 11:27:00;;;;;;;10.63;8.65;;;;;;;8.48;55.13;95280.72;5093989;28;20036;-72
2021/11/17 11:29:43;;;;;;;10.45;9.07;;;;;;;8.43;55.47;95275.84;5092583;28;20085;-72
2021/11/17 11:32:29;;;;;;;9.93;8.52;;;;;;;8.45;55.52;95274.00;5060502;28;20043;-72
2021/11/17 11:35:01;;;;;;;10.07;8.55;;;;;;;8.56;55.51;95268.09;5085004;28;20040;-72
2021/11/17 11:37:26;;;;;;;9.68;8.38;;;;;;;8.48;55.28;95268.59;5093937;28;20028;-72
2021/11/17 11:40:04;;;;;;;9.90;8.70;;;;;;;8.43;55.55;95256.91;5093591;28;20421;-72
2021/11/17 11:42:38;;;;;;;9.63;8.25;;;;;;;8.50;55.62;95261.56;5092658;28;20093;-72
2021/11/17 11:45:09;;;;;;;10.45;8.90;;;;;;;8.42;55.72;95263.03;5093527;28;20115;-72
2021/11/17 11:48:00;;;;;;;11.27;9.48;;;;;;;8.38;54.34;95261.53;5093815;28;20043;-72
2021/11/17 11:50:32;;;;;;;13.60;9.82;;;;;;;8.32;54.74;95249.00;5092076;28;20036;-72
2021/11/17 11:53:13;;;;;;;11.63;9.40;;;;;;;8.28;54.93;95243.19;5093855;28;20048;-72
2021/11/17 11:55:51;;;;;;;11.23;10.05;;;;;;;8.39;54.88;95258.06;5091070;28;20054;-72
2021/11/17 11:58:23;;;;;;;11.93;10.07;;;;;;;8.37;55.14;95249.53;5092238;28;20064;-72
2021/11/17 12:01:19;;;;;;;11.98;10.02;;;;;;;8.45;55.11;95252.44;5091830;28;20502;-72
2021/11/17 12:03:54;;;;;;;13.15;8.75;;;;;;;8.36;55.18;95251.28;5090366;28;20024;-72
2021/11/17 12:07:03;;;;;;;9.88;7.85;;;;;;;8.40;55.19;95247.56;5075872;28;20364;-73
2021/11/17 12:09:33;;;;;;;17.60;12.48;;;;;;;8.48;55.21;95247.06;5091210;28;20498;-73
2021/11/17 12:12:03;;;;;;;18.33;13.10;;;;;;;8.52;55.67;95251.09;5071407;28;20036;-74
2021/11/17 12:14:36;;;;;;;16.75;12.20;;;;;;;8.52;55.87;95245.09;5066834;28;20068;-72
2021/11/17 12:17:02;;;;;;;11.85;8.75;;;;;;;8.57;55.69;95253.38;5075167;28;20117;-72
2021/11/17 12:19:34;;;;;;;11.35;8.27;;;;;;;8.53;55.45;95251.94;5065165;28;20052;-72
2021/11/17 12:22:21;;;;;;;11.15;8.20;;;;;;;8.53;54.87;95250.19;5073979;28;20043;-72
2021/11/17 12:25:13;;;;;;;10.02;8.18;;;;;;;8.50;54.90;95250.38;5075385;28;20066;-72
2021/11/17 12:27:40;;;;;;;9.93;8.63;;;;;;;8.35;55.62;95241.84;5065222;28;20082;-72
2021/11/17 12:30:19;;;;;;;11.52;8.75;;;;;;;8.30;55.69;95241.31;5071195;28;20108;-72
2021/11/17 12:32:50;;;;;;;9.15;7.38;;;;;;;8.30;55.94;95243.91;5055206;28;20033;-72
2021/11/17 12:35:33;;;;;;;10.70;8.43;;;;;;;8.35;55.96;95241.03;5071052;28;20111;-72
2021/11/17 12:38:07;;;;;;;12.43;10.00;;;;;;;8.32;56.29;95236.88;5054610;28;20334;-72
2021/11/17 12:41:09;;;;;;;9.43;8.00;;;;;;;8.21;55.99;95224.66;5054571;28;20403;-72
2021/11/17 12:43:41;;;;;;;10.27;8.48;;;;;;;8.31;55.91;95242.16;5055258;28;20032;-72
2021/11/17 12:46:12;;;;;;;10.98;8.52;;;;;;;8.24;56.32;95244.31;5071036;28;20090;-72
2021/11/17 12:48:47;;;;;;;11.18;8.80;;;;;;;8.26;56.24;95243.28;5072112;28;20029;-72
2021/11/17 12:51:33;;;;;;;9.98;7.55;;;;;;;8.22;56.65;95235.84;5070768;28;20058;-72
2021/11/17 12:54:19;;;;;;;8.85;7.50;;;;;;;8.24;56.30;95234.78;5070793;28;20028;-73
2021/11/17 12:57:04;;;;;;;12.48;8.10;;;;;;;8.30;56.71;95236.13;5071539;28;20052;-72
2021/11/17 13:00:03;;;;;;;11.07;8.30;;;;;;;8.20;56.33;95238.53;5070632;28;20119;-72
2021/11/17 13:03:02;;;;;;;10.00;8.38;;;;;;;8.23;56.29;95237.50;5066033;28;20569;-72
2021/11/17 13:05:32;;;;;;;9.57;7.88;;;;;;;8.23;56.44;95243.50;5070501;28;20456;-72
2021/11/17 13:08:04;;;;;;;8.50;6.60;;;;;;;8.29;56.24;95240.50;5070617;28;20035;-72
2021/11/17 13:10:37;;;;;;;12.57;9.60;;;;;;;8.30;56.50;95243.91;5071605;28;20029;-72
2021/11/17 13:13:17;;;;;;;9.88;8.13;;;;;;;8.30;56.05;95246.50;5070581;28;20032;-72
2021/11/17 13:15:54;;;;;;;11.35;7.68;;;;;;;8.22;56.46;95247.03;5071498;28;20028;-72
2021/11/17 13:18:34;;;;;;;8.45;7.38;;;;;;;8.21;56.16;95252.28;5070506;28;20034;-72
2021/11/17 13:21:21;;;;;;;10.52;7.60;;;;;;;8.19;55.98;95254.16;5053714;28;20081;-72
2021/11/17 13:24:07;;;;;;;9.55;8.40;;;;;;;8.21;56.24;95247.13;5070152;28;20044;-72
2021/11/17 13:26:39;;;;;;;10.27;9.07;;;;;;;8.17;56.31;95243.91;5069642;28;20037;-72
2021/11/17 13:29:26;;;;;;;10.85;9.40;;;;;;;8.15;57.00;95243.19;5070121;28;20071;-72
2021/11/17 13:32:14;;;;;;;15.05;13.38;;;;;;;8.14;56.96;95240.72;5071451;28;20032;-72
2021/11/17 13:34:44;;;;;;;16.13;11.90;;;;;;;8.12;57.01;95235.63;5067496;28;20399;-72
2021/11/17 13:37:37;;;;;;;14.88;10.40;;;;;;;8.11;56.98;95240.88;5069828;28;20028;-73
2021/11/17 13:40:08;;;;;;;11.55;8.75;;;;;;;8.07;56.68;95227.31;5039168;28;20426;-73
2021/11/17 13:42:34;;;;;;;9.77;7.90;;;;;;;8.07;56.72;95237.69;5070176;28;20456;-73
2021/11/17 13:45:00;;;;;;;9.05;7.68;;;;;;;8.00;56.76;95216.56;5069772;28;20032;-73
2021/11/17 13:47:25;;;;;;;9.63;7.95;;;;;;;8.09;56.83;95235.81;5070043;28;20089;-73
2021/11/17 13:49:53;;;;;;;14.35;11.95;;;;;;;8.07;56.72;95222.97;5069891;28;20422;-73
2021/11/17 13:52:31;;;;;;;13.88;10.85;;;;;;;8.13;56.68;95234.69;5053092;28;20483;-73
2021/11/17 13:54:57;;;;;;;18.48;15.25;;;;;;;8.17;56.69;95222.38;5069682;28;20029;-73
2021/11/17 13:57:23;;;;;;;13.55;11.43;;;;;;;8.11;56.95;95228.81;5053129;28;20028;-73
2021/11/17 13:59:49;;;;;;;11.35;9.30;;;;;;;8.07;57.45;95217.81;5052782;28;20406;-73
2021/11/17 14:02:14;;;;;;;15.90;10.85;;;;;;;8.05;57.41;95224.00;5052870;28;20036;-73
2021/11/17 14:04:40;;;;;;;9.90;7.72;;;;;;;8.09;57.25;95224.66;5052996;28;20554;-73
2021/11/17 14:07:06;;;;;;;10.07;7.68;;;;;;;8.01;56.97;95204.47;5069729;28;20407;-73
2021/11/17 14:09:31;;;;;;;9.90;7.25;;;;;;;8.05;56.95;95219.69;5069567;28;20036;-73
2021/11/17 14:11:57;;;;;;;8.75;7.07;;;;;;;8.07;56.97;95222.16;5069532;28;20103;-73
2021/11/17 14:14:22;;;;;;;10.75;8.10;;;;;;;8.06;56.92;95234.28;5052756;28;20032;-73
2021/11/17 14:16:48;;;;;;;10.60;8.30;;;;;;;8.07;57.34;95232.50;5069329;28;20105;-73
2021/11/17 14:19:13;;;;;;;14.68;9.10;;;;;;;8.04;57.51;95227.53;5068957;28;20509;-74
2021/11/17 14:21:39;;;;;;;10.23;8.25;;;;;;;8.01;57.37;95222.56;5069464;28;20036;-73
2021/11/17 14:24:04;;;;;;;9.95;8.05;;;;;;;8.04;57.14;95228.34;5052797;28;20025;-73
2021/11/17 14:26:30;;;;;;;9.07;7.07;;;;;;;8.05;57.36;95231.75;5069389;28;20514;-73
2021/11/17 14:29:00;;;;;;;9.30;7.03;;;;;;;8.05;57.08;95235.22;5069424;28;20109;-73
2021/11/17 14:31:44;;;;;;;12.95;9.18;;;;;;;8.07;57.12;95235.91;5052468;28;20419;-73
2021/11/17 14:34:09;;;;;;;10.15;8.23;;;;;;;8.07;57.46;95232.50;5069394;28;20054;-73
2021/11/17 14:36:43;;;;;;;11.02;8.48;;;;;;;8.08;57.25;95229.00;5069229;28;20526;-73